ěÝzenÝ letovÚho provozu ╚eskÚ republiky
Letiste: LKPR Aktualizace: 21.09.2021 06:00:30  UTC
 METAR LKPR 21.09. 06:00 ...
METAR LKPR 210600Z VRB02KT CAVOK 09/07 Q1026 NOSIG RMK REG QNH 1024=
 TAF LKPR 21.09. 05:00 ...
TAF LKPR 210500Z 2106/2212 32008KT 9999 SCT040      BECMG 2122/2200 BKN027      PROB40 TEMPO 2203/2208 6000 RA OVC013      TEMPO 2204/2212 33014G24KT=